createdAt,value
2019-02-07T00:00:27.796Z,73.33
2019-02-07T00:05:23.685Z,72.94
2019-02-07T00:10:19.975Z,73.18
2019-02-07T00:15:16.064Z,73.37
2019-02-07T00:20:15.025Z,73.23
2019-02-07T00:25:10.936Z,73.43
2019-02-07T00:30:10.542Z,73.97
2019-02-07T00:35:08.534Z,74.02
2019-02-07T00:40:10.442Z,73.54
2019-02-07T00:45:09.133Z,74.48
2019-02-07T00:50:07.925Z,74.17
2019-02-07T00:55:07.320Z,73.99
2019-02-07T01:00:15.892Z,74.03
2019-02-07T01:05:12.785Z,73.80
2019-02-07T01:10:11.554Z,73.90
2019-02-07T01:15:09.798Z,74.06
2019-02-07T01:20:11.720Z,74.49
2019-02-07T01:25:10.810Z,74.22
2019-02-07T01:30:10.310Z,74.17
2019-02-07T01:35:07.395Z,73.93
2019-02-07T01:40:10.208Z,73.78
2019-02-07T01:45:13.156Z,73.47
2019-02-07T01:50:10.288Z,73.32
2019-02-07T01:55:06.302Z,73.60
2019-02-07T02:00:07.803Z,73.91
2019-02-07T02:05:05.260Z,74.24
2019-02-07T02:10:01.523Z,74.02
2019-02-07T02:14:57.506Z,73.98
2019-02-07T02:19:53.479Z,73.75
2019-02-07T02:24:49.457Z,73.68
2019-02-07T02:29:46.411Z,73.31
2019-02-07T02:34:42.931Z,72.79
2019-02-07T02:39:39.449Z,72.02
2019-02-07T02:44:35.393Z,71.43
2019-02-07T02:49:31.394Z,71.01
2019-02-07T02:54:36.091Z,70.70
2019-02-07T02:59:32.034Z,70.18
2019-02-07T03:04:29.924Z,69.54
2019-02-07T03:09:45.945Z,68.78
2019-02-07T03:14:46.256Z,68.76
2019-02-07T03:20:00.777Z,68.06
2019-02-07T03:25:15.179Z,68.30
2019-02-07T03:30:22.113Z,69.13
2019-02-07T03:35:22.631Z,69.82
2019-02-07T03:40:32.231Z,70.82
2019-02-07T03:45:32.799Z,71.44
2019-02-07T03:50:47.645Z,72.44
2019-02-07T03:55:45.444Z,72.23
2019-02-07T04:00:43.361Z,72.62
2019-02-07T04:05:59.566Z,73.33
2019-02-07T04:11:09.645Z,73.92
2019-02-07T04:16:17.084Z,73.77
2019-02-07T04:21:29.896Z,74.08
2019-02-07T04:26:33.305Z,74.97
2019-02-07T04:31:34.177Z,75.60
2019-02-07T04:36:48.804Z,74.91
2019-02-07T04:41:49.917Z,74.42
2019-02-07T04:47:04.152Z,73.07
2019-02-07T04:52:11.018Z,71.16
2019-02-07T04:57:15.121Z,70.78
2019-02-07T05:02:18.709Z,69.09
2019-02-07T05:07:16.513Z,67.06
2019-02-07T05:12:14.307Z,66.00
2019-02-07T05:17:27.248Z,64.36
2019-02-07T05:22:25.036Z,64.77
2019-02-07T05:27:34.924Z,64.68
2019-02-07T05:32:37.803Z,64.92
2019-02-07T05:37:35.602Z,64.84
2019-02-07T05:42:33.403Z,65.18
2019-02-07T05:47:36.998Z,65.01
2019-02-07T05:52:34.795Z,65.63
2019-02-07T05:57:41.366Z,65.07
2019-02-07T06:02:39.161Z,64.61
2019-02-07T06:07:39.755Z,64.09
2019-02-07T06:12:46.901Z,64.44
2019-02-07T06:17:44.691Z,64.48
2019-02-07T06:22:57.837Z,64.50
2019-02-07T06:27:55.632Z,65.62
2019-02-07T06:32:53.517Z,65.79
2019-02-07T06:37:54.370Z,67.09
2019-02-07T06:42:52.171Z,67.83
2019-02-07T06:47:53.221Z,69.02
2019-02-07T06:52:51.021Z,69.74
2019-02-07T06:57:51.598Z,70.86
2019-02-07T07:02:49.381Z,71.26
2019-02-07T07:07:49.720Z,72.68
2019-02-07T07:12:47.632Z,73.13
2019-02-07T07:17:51.319Z,73.92
2019-02-07T07:23:05.998Z,73.86
2019-02-07T07:28:09.850Z,74.00
2019-02-07T07:33:07.640Z,74.30
2019-02-07T07:38:05.538Z,74.75
2019-02-07T07:43:12.015Z,74.83
2019-02-07T07:48:09.911Z,75.42
2019-02-07T07:53:24.773Z,75.83
2019-02-07T07:58:39.456Z,76.87
2019-02-07T08:03:43.194Z,77.21
2019-02-07T08:08:49.692Z,78.18
2019-02-07T08:13:47.484Z,79.37
2019-02-07T08:18:48.274Z,80.34
2019-02-07T08:24:06.809Z,80.40
2019-02-07T08:29:07.702Z,81.08
2019-02-07T08:34:09.364Z,82.35
2019-02-07T08:39:22.304Z,84.00
2019-02-07T08:44:23.125Z,84.10
2019-02-07T08:49:21.026Z,83.11
2019-02-07T08:54:37.399Z,83.91
2019-02-07T08:59:35.261Z,85.15
2019-02-07T09:04:33.457Z,85.16
2019-02-07T09:14:41.501Z,85.04
2019-02-07T09:19:39.287Z,84.73
2019-02-07T09:24:39.939Z,83.77
2019-02-07T09:29:37.711Z,83.29
2019-02-07T09:34:39.980Z,82.56
2019-02-07T09:39:41.404Z,82.37
2019-02-07T09:44:45.639Z,82.04
2019-02-07T09:50:00.657Z,82.05
2019-02-07T09:55:13.932Z,81.81
2019-02-07T10:00:15.110Z,81.57
2019-02-07T10:05:28.574Z,81.56
2019-02-07T10:10:38.438Z,81.44
2019-02-07T10:15:45.539Z,81.49
2019-02-07T10:20:46.181Z,81.37
2019-02-07T10:25:51.358Z,80.95
2019-02-07T10:31:07.828Z,80.74
2019-02-07T10:36:05.728Z,80.59
2019-02-07T10:41:05.766Z,80.21
2019-02-07T10:46:06.374Z,80.17
2019-02-07T10:51:10.149Z,79.75
2019-02-07T10:56:16.888Z,79.57
2019-02-07T11:01:20.572Z,79.95
2019-02-07T11:06:30.177Z,80.26
2019-02-07T11:11:28.154Z,80.08
2019-02-07T11:16:25.932Z,79.71
2019-02-07T11:21:38.773Z,78.95
2019-02-07T11:26:39.116Z,78.82
2019-02-07T11:31:52.069Z,77.66
2019-02-07T11:37:02.222Z,76.96
2019-02-07T11:42:05.863Z,74.50
2019-02-07T11:47:21.115Z,74.06
2019-02-07T11:52:24.730Z,73.84
2019-02-07T11:57:25.569Z,74.56
2019-02-07T12:02:26.802Z,72.85
2019-02-07T12:07:39.728Z,71.64
2019-02-07T12:12:46.106Z,70.75
2019-02-07T12:17:47.050Z,70.55
2019-02-07T12:22:56.481Z,69.80
2019-02-07T12:27:57.207Z,68.62
2019-02-07T12:33:01.448Z,67.03
2019-02-07T12:38:00.283Z,65.00
2019-02-07T12:42:58.273Z,63.04
2019-02-07T12:47:58.637Z,62.55
2019-02-07T12:53:13.309Z,63.05
2019-02-07T12:58:20.187Z,63.11
2019-02-07T13:03:36.242Z,63.69
2019-02-07T13:08:46.245Z,63.79
2019-02-07T13:13:50.074Z,64.23
2019-02-07T13:19:04.514Z,64.43
2019-02-07T13:24:18.257Z,63.41
2019-02-07T13:29:21.903Z,62.50
2019-02-07T13:34:19.743Z,62.32
2019-02-07T13:39:23.400Z,62.39
2019-02-07T13:44:30.453Z,63.04
2019-02-07T13:49:51.995Z,62.09
2019-02-07T13:54:47.843Z,63.24
2019-02-07T13:59:45.744Z,62.70
2019-02-07T14:04:49.523Z,63.67
2019-02-07T14:09:56.445Z,62.99
2019-02-07T14:15:03.254Z,63.60
2019-02-07T14:20:03.928Z,63.70
2019-02-07T14:25:14.074Z,63.12
2019-02-07T14:30:13.293Z,63.19
2019-02-07T14:35:17.825Z,63.02
2019-02-07T14:40:15.802Z,63.46
2019-02-07T14:45:31.502Z,63.23
2019-02-07T14:50:27.663Z,63.13
2019-02-07T14:55:23.555Z,63.27
2019-02-07T15:00:22.455Z,64.27
2019-02-07T15:05:18.442Z,63.85
2019-02-07T15:10:20.056Z,63.69
2019-02-07T15:15:19.065Z,64.27
2019-02-07T15:20:25.501Z,63.78
2019-02-07T15:25:13.249Z,63.86
2019-02-07T15:30:12.634Z,63.33
2019-02-07T15:35:21.314Z,63.75
2019-02-07T15:40:20.321Z,63.71
2019-02-07T15:45:16.609Z,63.79
2019-02-07T15:50:16.014Z,64.32
2019-02-07T15:55:12.307Z,63.88
2019-02-07T16:00:13.912Z,63.70
2019-02-07T16:05:11.606Z,63.36
2019-02-07T16:10:11.005Z,64.20
2019-02-07T16:15:09.633Z,63.97
2019-02-07T16:25:12.799Z,64.51
2019-02-07T16:30:13.680Z,64.19
2019-02-07T16:35:12.566Z,64.29
2019-02-07T16:40:11.069Z,64.14
2019-02-07T16:45:16.467Z,64.19
2019-02-07T16:50:19.212Z,64.05
2019-02-07T16:55:16.264Z,63.48
2019-02-07T17:00:18.884Z,63.48
2019-02-07T17:05:16.380Z,63.58
2019-02-07T17:10:18.557Z,63.39
2019-02-07T17:15:16.357Z,63.46
2019-02-07T17:20:25.118Z,62.99
2019-02-07T17:25:21.355Z,63.01
2019-02-07T17:30:41.793Z,63.02
2019-02-07T17:35:37.860Z,63.21
2019-02-07T17:40:33.753Z,63.41
2019-02-07T17:45:30.598Z,63.65
2019-02-07T17:50:35.075Z,63.55
2019-02-07T17:55:31.076Z,63.62
2019-02-07T18:00:47.945Z,63.89
2019-02-07T18:05:43.924Z,64.25
2019-02-07T18:10:40.115Z,65.06
2019-02-07T18:15:36.310Z,65.66
2019-02-07T18:20:32.396Z,66.72
2019-02-07T18:25:28.280Z,67.55
2019-02-07T18:30:24.334Z,68.51
2019-02-07T18:35:20.324Z,69.38
2019-02-07T18:40:22.477Z,69.21
2019-02-07T18:45:19.565Z,69.68
2019-02-07T18:50:22.263Z,70.03
2019-02-07T18:55:18.249Z,69.84
2019-02-07T19:00:26.149Z,70.23
2019-02-07T19:05:22.437Z,70.15
2019-02-07T19:10:20.453Z,70.13
2019-02-07T19:15:37.571Z,70.03
2019-02-07T19:20:33.460Z,69.87
2019-02-07T19:25:29.450Z,69.50
2019-02-07T19:30:30.405Z,69.45
2019-02-07T19:35:26.489Z,69.92
2019-02-07T19:40:22.503Z,69.93
2019-02-07T19:45:20.689Z,69.99
2019-02-07T19:50:19.580Z,70.05
2019-02-07T19:55:17.478Z,70.33
2019-02-07T20:00:16.779Z,70.50
2019-02-07T20:05:12.964Z,70.34
2019-02-07T20:10:14.610Z,70.29
2019-02-07T20:15:17.102Z,70.52
2019-02-07T20:20:14.467Z,70.65
2019-02-07T20:25:11.855Z,71.10
2019-02-07T20:30:14.691Z,71.05
2019-02-07T20:35:10.983Z,71.07
2019-02-07T20:40:10.692Z,71.45
2019-02-07T20:45:09.785Z,71.12
2019-02-07T20:50:15.426Z,71.27
2019-02-07T20:55:11.614Z,71.49
2019-02-07T21:00:18.020Z,71.72
2019-02-07T21:05:15.813Z,71.34
2019-02-07T21:10:17.982Z,71.33
2019-02-07T21:15:18.803Z,71.51
2019-02-07T21:20:16.882Z,71.59
2019-02-07T21:25:18.176Z,71.93
2019-02-07T21:30:17.877Z,71.98
2019-02-07T21:35:16.855Z,72.48
2019-02-07T21:40:16.018Z,73.05
2019-02-07T21:45:14.300Z,73.29
2019-02-07T21:50:15.787Z,73.44
2019-02-07T21:55:14.376Z,74.05
2019-02-07T22:00:14.075Z,74.17
2019-02-07T22:05:10.061Z,74.41
2019-02-07T22:10:09.154Z,74.53
2019-02-07T22:15:08.852Z,74.76
2019-02-07T22:20:13.449Z,74.89
2019-02-07T22:25:10.033Z,75.15
2019-02-07T22:30:15.017Z,74.98
2019-02-07T22:35:11.706Z,75.05
2019-02-07T22:40:11.099Z,75.28
2019-02-07T22:45:10.168Z,74.94
2019-02-07T22:50:09.862Z,75.26
2019-02-07T22:55:07.548Z,75.34
2019-02-07T23:00:30.919Z,75.22
2019-02-07T23:05:26.803Z,75.66
2019-02-07T23:10:22.817Z,75.22
2019-02-07T23:15:18.836Z,75.40
2019-02-07T23:20:15.085Z,75.40
2019-02-07T23:25:11.214Z,75.56
2019-02-07T23:30:13.430Z,75.84
2019-02-07T23:35:10.115Z,76.13
2019-02-07T23:40:17.551Z,76.55
2019-02-07T23:45:15.638Z,76.80
2019-02-07T23:50:11.914Z,76.83
2019-02-07T23:55:09.706Z,77.09
